Time;durP1;ratioP1;P1;durP2;ratioP2;P2;SDS_P1;SDS_P2;PMS_P1;PMS_P2;Temp;Humidity;BMP_temperature;BMP_pressure;BME280_temperature;BME280_humidity;BME280_pressure;Samples;Min_cycle;Max_cycle;Signal;HPM_P1;HPM_P2
2022/06/04 00:02:07;;;;;;;12.07;5.15;;;10.90;99.90;;;;;;5080801;28;20117;-77
2022/06/04 00:04:33;;;;;;;12.05;6.05;;;11.00;99.90;;;;;;5075997;28;20047;-78
2022/06/04 00:06:59;;;;;;;8.98;4.47;;;10.90;99.90;;;;;;5075197;28;20532;-76
2022/06/04 00:09:25;;;;;;;16.02;5.68;;;10.90;99.90;;;;;;5073475;28;20127;-76
2022/06/04 00:17:22;;;;;;;8.43;5.15;;;10.90;99.90;;;;;;5072664;28;20446;-76
2022/06/04 00:19:48;;;;;;;17.38;6.72;;;10.90;99.90;;;;;;5074495;28;20392;-76
2022/06/04 00:22:14;;;;;;;19.10;6.68;;;10.90;99.90;;;;;;5073077;28;20090;-77
2022/06/04 00:24:44;;;;;;;9.75;5.80;;;10.80;99.90;;;;;;5074447;28;20481;-77
2022/06/04 00:27:19;;;;;;;13.35;6.00;;;10.80;99.90;;;;;;5073681;28;20498;-76
2022/06/04 00:29:45;;;;;;;18.35;6.75;;;10.80;99.90;;;;;;5089394;28;20395;-76
2022/06/04 00:32:12;;;;;;;15.27;6.45;;;10.80;99.90;;;;;;5090502;28;20112;-76
2022/06/04 00:34:37;;;;;;;12.43;6.70;;;10.80;99.90;;;;;;5075203;28;20044;-76
2022/06/04 00:37:03;;;;;;;14.23;7.35;;;10.80;99.90;;;;;;5073796;28;20063;-76
2022/06/04 00:39:29;;;;;;;15.70;7.95;;;10.70;99.90;;;;;;5075318;28;20040;-77
2022/06/04 00:42:04;;;;;;;16.80;7.40;;;10.70;99.90;;;;;;5074560;28;20480;-78
2022/06/04 00:44:30;;;;;;;13.57;6.90;;;10.70;99.90;;;;;;5069916;28;20053;-77
2022/06/04 00:47:27;;;;;;;15.57;7.55;;;10.70;99.90;;;;;;5053630;28;20499;-76
2022/06/04 00:49:52;;;;;;;17.70;8.20;;;10.70;99.90;;;;;;5074994;28;20040;-76
2022/06/04 00:52:20;;;;;;;18.10;7.03;;;10.70;99.90;;;;;;5092384;28;20070;-76
2022/06/04 00:54:51;;;;;;;16.98;7.25;;;10.70;99.90;;;;;;5073461;28;20041;-75
2022/06/04 00:57:19;;;;;;;17.58;8.18;;;10.70;99.90;;;;;;5073524;28;20040;-76
2022/06/04 01:00:06;;;;;;;12.25;6.90;;;10.70;99.90;;;;;;5074918;28;20048;-76
2022/06/04 01:02:40;;;;;;;13.52;7.35;;;10.70;99.90;;;;;;5072877;28;20051;-76
2022/06/04 01:05:17;;;;;;;21.25;9.73;;;10.70;99.90;;;;;;5065658;28;20045;-75
2022/06/04 01:08:24;;;;;;;17.73;7.45;;;10.60;99.90;;;;;;5058405;28;20165;-77
2022/06/04 01:11:22;;;;;;;18.45;7.88;;;10.70;99.90;;;;;;5052501;28;20048;-77
2022/06/04 01:14:00;;;;;;;16.52;8.00;;;10.60;99.90;;;;;;5067206;28;20056;-76
2022/06/04 01:16:47;;;;;;;19.13;7.40;;;10.70;99.90;;;;;;5074506;28;20045;-76
2022/06/04 01:20:07;;;;;;;15.52;8.07;;;10.60;99.90;;;;;;5072257;28;20083;-76
2022/06/04 01:23:04;;;;;;;13.45;6.80;;;10.60;99.90;;;;;;5053542;28;20067;-76
2022/06/04 01:25:40;;;;;;;20.88;6.80;;;10.60;99.90;;;;;;5073503;28;20052;-76
2022/06/04 01:28:09;;;;;;;17.58;9.02;;;10.60;99.90;;;;;;5072367;28;20039;-76
2022/06/04 01:30:47;;;;;;;13.35;7.00;;;10.60;99.90;;;;;;5056427;28;20190;-76
2022/06/04 01:33:46;;;;;;;16.77;6.70;;;10.60;99.90;;;;;;5074028;28;20048;-76
2022/06/04 01:36:22;;;;;;;19.30;6.82;;;10.60;99.90;;;;;;5069269;28;20411;-76
2022/06/04 01:39:00;;;;;;;16.23;6.63;;;10.60;99.90;;;;;;5052762;28;20132;-76
2022/06/04 01:41:33;;;;;;;15.13;6.72;;;10.60;99.90;;;;;;5054253;28;20131;-76
2022/06/04 01:44:12;;;;;;;13.82;6.63;;;10.60;99.90;;;;;;5074077;28;20064;-76
2022/06/04 01:46:46;;;;;;;17.42;6.90;;;10.60;99.90;;;;;;5072373;28;20051;-75
2022/06/04 01:49:31;;;;;;;15.90;7.60;;;10.60;99.90;;;;;;5073683;28;20044;-76
2022/06/04 01:52:02;;;;;;;;;;;10.50;99.90;;;;;;5073079;28;20500;-75
2022/06/04 01:54:51;;;;;;;16.83;6.43;;;10.50;99.90;;;;;;5072916;28;19965;-76
2022/06/04 01:57:34;;;;;;;16.67;6.07;;;10.50;99.90;;;;;;5032820;28;20497;-77
2022/06/04 02:00:28;;;;;;;13.93;6.25;;;10.50;99.90;;;;;;5055583;28;20084;-77
2022/06/04 02:03:04;;;;;;;25.02;8.27;;;10.50;99.90;;;;;;5067282;28;20080;-75
2022/06/04 02:05:46;;;;;;;16.35;6.20;;;10.40;99.90;;;;;;5059534;28;20151;-75
2022/06/04 02:08:18;;;;;;;16.42;7.18;;;10.40;99.90;;;;;;5089930;28;20514;-77
2022/06/04 02:10:48;;;;;;;17.23;6.70;;;10.40;99.90;;;;;;5084918;28;20410;-77
2022/06/04 02:13:15;;;;;;;14.38;6.55;;;10.40;99.90;;;;;;5072386;28;20048;-76
2022/06/04 02:15:52;;;;;;;17.55;6.60;;;10.40;99.90;;;;;;5071452;28;20051;-75
2022/06/04 02:18:18;;;;;;;16.75;5.82;;;10.40;99.90;;;;;;5073664;28;20045;-76
2022/06/04 02:20:44;;;;;;;19.90;5.80;;;10.40;99.90;;;;;;5071668;28;20094;-75
2022/06/04 02:23:10;;;;;;;18.48;5.60;;;10.40;99.90;;;;;;5072810;28;20045;-75
2022/06/04 02:25:35;;;;;;;20.05;6.05;;;10.40;99.90;;;;;;5073031;28;20041;-75
2022/06/04 02:28:04;;;;;;;18.95;6.18;;;10.30;99.90;;;;;;5073515;28;20545;-75
2022/06/04 02:30:58;;;;;;;18.08;6.78;;;10.40;99.90;;;;;;5072113;28;20047;-75
2022/06/04 02:33:41;;;;;;;17.27;6.63;;;10.40;99.90;;;;;;5071511;28;20036;-76
2022/06/04 02:36:16;;;;;;;13.32;5.90;;;10.30;99.90;;;;;;5071276;28;20048;-75
2022/06/04 02:38:55;;;;;;;;;;;10.40;99.90;;;;;;5073207;28;20526;-75
2022/06/04 02:41:26;;;;;;;15.80;5.90;;;10.30;99.90;;;;;;5073832;28;20275;-75
2022/06/04 02:44:02;;;;;;;15.43;6.25;;;10.30;99.90;;;;;;5070671;28;20060;-75
2022/06/04 02:46:40;;;;;;;14.73;6.00;;;10.30;99.90;;;;;;5073414;28;20052;-75
2022/06/04 02:49:17;;;;;;;15.25;6.78;;;10.30;99.90;;;;;;5072644;28;20088;-75
2022/06/04 02:51:47;;;;;;;10.07;5.75;;;10.30;99.90;;;;;;5073406;28;20040;-76
2022/06/04 02:54:21;;;;;;;14.82;6.00;;;10.20;99.90;;;;;;5071662;28;20109;-75
2022/06/04 02:56:50;;;;;;;13.95;6.07;;;10.20;99.90;;;;;;5071242;28;20056;-75
2022/06/04 02:59:18;;;;;;;12.27;5.80;;;10.20;99.90;;;;;;5070830;28;20075;-75
2022/06/04 03:01:47;;;;;;;14.75;6.50;;;10.20;99.90;;;;;;5076350;28;20047;-75
2022/06/04 03:04:13;;;;;;;13.35;5.55;;;10.20;99.90;;;;;;5091923;28;20040;-75
2022/06/04 03:06:39;;;;;;;11.18;5.90;;;10.20;99.90;;;;;;5078296;28;20388;-75
2022/06/04 03:09:09;;;;;;;11.13;6.28;;;10.20;99.90;;;;;;5071517;28;20110;-75
2022/06/04 03:11:43;;;;;;;12.40;5.75;;;10.20;99.90;;;;;;5070547;28;20049;-75
2022/06/04 03:14:10;;;;;;;9.07;5.88;;;10.20;99.90;;;;;;5075008;28;20400;-75
2022/06/04 03:16:38;;;;;;;13.80;6.57;;;10.20;99.90;;;;;;5076091;28;20526;-75
2022/06/04 03:19:07;;;;;;;13.80;6.13;;;10.20;99.90;;;;;;5074727;28;20075;-75
2022/06/04 03:21:34;;;;;;;15.98;6.00;;;10.20;99.90;;;;;;5076232;28;20388;-75
2022/06/04 03:24:00;;;;;;;12.68;6.40;;;10.20;99.90;;;;;;5076611;28;20044;-76
2022/06/04 03:26:26;;;;;;;13.13;6.35;;;10.20;99.90;;;;;;5074206;28;20048;-75
2022/06/04 03:28:51;;;;;;;12.32;6.30;;;10.10;99.90;;;;;;5076545;28;20056;-75
2022/06/04 03:31:17;;;;;;;14.18;6.38;;;10.10;99.90;;;;;;5074702;28;20041;-75
2022/06/04 03:33:43;;;;;;;13.85;6.25;;;10.10;99.90;;;;;;5076841;28;20093;-76
2022/06/04 03:36:10;;;;;;;14.00;6.03;;;10.10;99.90;;;;;;5074541;28;20075;-75
2022/06/04 03:38:36;;;;;;;18.67;6.10;;;10.10;99.90;;;;;;5074639;28;20518;-75
2022/06/04 03:41:02;;;;;;;16.30;6.35;;;10.20;99.90;;;;;;5075660;28;20041;-75
2022/06/04 03:43:28;;;;;;;15.90;6.38;;;10.10;99.90;;;;;;5075107;28;20083;-75
2022/06/04 03:45:54;;;;;;;11.45;6.30;;;10.10;99.90;;;;;;5073697;28;20084;-75
2022/06/04 03:48:20;;;;;;;14.35;5.88;;;10.10;99.90;;;;;;5075990;28;20492;-75
2022/06/04 03:50:46;;;;;;;15.02;6.70;;;10.10;99.90;;;;;;5075374;28;20040;-75
2022/06/04 03:53:11;;;;;;;10.45;5.95;;;10.10;99.90;;;;;;5075517;28;20047;-75
2022/06/04 03:55:37;;;;;;;16.27;6.40;;;10.10;99.90;;;;;;5074995;28;20124;-75
2022/06/04 03:58:03;;;;;;;12.90;6.38;;;10.10;99.90;;;;;;5075492;28;20101;-75
2022/06/04 04:00:32;;;;;;;13.60;6.35;;;10.10;99.90;;;;;;5073828;28;20044;-75
2022/06/04 04:03:01;;;;;;;15.98;6.05;;;10.10;99.90;;;;;;5091576;28;20035;-75
2022/06/04 04:05:31;;;;;;;15.32;5.85;;;10.10;99.90;;;;;;5084240;28;20482;-75
2022/06/04 04:07:57;;;;;;;13.68;6.07;;;10.10;99.90;;;;;;5053968;28;20037;-75
2022/06/04 04:10:25;;;;;;;11.85;6.05;;;10.10;99.90;;;;;;5058661;28;20414;-75
2022/06/04 04:12:51;;;;;;;10.65;6.15;;;10.20;99.90;;;;;;5074476;28;20140;-75
2022/06/04 04:15:18;;;;;;;9.93;6.22;;;10.10;99.90;;;;;;5073104;28;20510;-75
2022/06/04 04:17:44;;;;;;;16.85;7.00;;;10.20;99.90;;;;;;5074615;28;20052;-75
2022/06/04 04:20:19;;;;;;;9.65;6.38;;;10.20;99.90;;;;;;5074798;28;20471;-75
2022/06/04 04:22:45;;;;;;;13.00;6.60;;;10.30;99.90;;;;;;5074907;28;20045;-75
2022/06/04 04:25:13;;;;;;;12.00;6.03;;;10.30;99.90;;;;;;5074270;28;20056;-75
2022/06/04 04:27:39;;;;;;;11.27;6.20;;;10.30;99.90;;;;;;5074282;28;20040;-76
2022/06/04 04:30:08;;;;;;;13.43;6.43;;;10.40;99.90;;;;;;5074782;28;20491;-75
2022/06/04 04:32:34;;;;;;;15.02;6.43;;;10.40;99.90;;;;;;5093405;28;20091;-76
2022/06/04 04:35:01;;;;;;;11.32;5.72;;;10.50;99.90;;;;;;5094761;28;20046;-75
2022/06/04 04:37:27;;;;;;;9.32;5.75;;;10.50;99.90;;;;;;5075695;28;20045;-75
2022/06/04 04:39:53;;;;;;;11.65;6.40;;;10.60;99.90;;;;;;5070088;28;20040;-76
2022/06/04 04:42:18;;;;;;;9.25;5.55;;;10.60;99.90;;;;;;5054504;28;20041;-76
2022/06/04 04:44:44;;;;;;;7.40;5.78;;;10.70;99.90;;;;;;5058752;28;20037;-76
2022/06/04 04:47:10;;;;;;;9.85;5.93;;;10.80;99.90;;;;;;5074416;28;20087;-76
2022/06/04 04:49:36;;;;;;;13.38;5.60;;;10.80;99.90;;;;;;5072567;28;20052;-76
2022/06/04 04:52:03;;;;;;;8.23;5.07;;;10.90;99.90;;;;;;5073287;28;20048;-76
2022/06/04 04:54:29;;;;;;;10.15;5.28;;;11.00;99.90;;;;;;5074940;28;20399;-75
2022/06/04 04:56:54;;;;;;;12.95;5.30;;;11.10;99.90;;;;;;5073714;28;20036;-76
2022/06/04 04:59:20;;;;;;;9.05;5.30;;;11.20;99.90;;;;;;5073719;28;20404;-76
2022/06/04 05:01:46;;;;;;;12.10;6.10;;;11.30;99.90;;;;;;5086297;28;20118;-76
2022/06/04 05:04:12;;;;;;;10.82;5.38;;;11.40;99.90;;;;;;5073877;28;20051;-76
2022/06/04 05:06:38;;;;;;;9.75;5.78;;;11.50;99.90;;;;;;5074795;28;20127;-76
2022/06/04 05:09:04;;;;;;;6.32;5.28;;;11.50;99.90;;;;;;5075069;28;20092;-77
2022/06/04 05:11:35;;;;;;;8.60;5.55;;;11.60;99.90;;;;;;5073368;28;20045;-77
2022/06/04 05:14:01;;;;;;;8.25;4.65;;;11.60;99.90;;;;;;5053417;28;20443;-77
2022/06/04 05:16:32;;;;;;;6.75;4.75;;;11.70;99.90;;;;;;5070361;28;20041;-76
2022/06/04 05:19:01;;;;;;;11.43;4.90;;;11.80;99.90;;;;;;5073564;28;20565;-77
2022/06/04 05:21:48;;;;;;;5.93;4.32;;;11.90;99.90;;;;;;5073127;28;20051;-76
2022/06/04 05:24:16;;;;;;;7.80;4.63;;;12.00;99.90;;;;;;5072246;28;20044;-81
2022/06/04 05:26:41;;;;;;;7.03;4.32;;;12.10;99.90;;;;;;5073252;28;20080;-80
2022/06/04 05:29:07;;;;;;;7.03;4.35;;;12.20;99.90;;;;;;5066525;28;20083;-79
2022/06/04 05:31:35;;;;;;;6.47;3.92;;;12.30;99.90;;;;;;5073583;28;20112;-81
2022/06/04 05:34:02;;;;;;;7.88;4.47;;;12.40;99.90;;;;;;5073884;28;20048;-80
2022/06/04 05:36:29;;;;;;;5.95;4.40;;;12.40;99.90;;;;;;5082838;28;20048;-79
2022/06/04 05:38:55;;;;;;;7.28;3.90;;;12.50;99.90;;;;;;5071747;28;20049;-80
2022/06/04 05:41:21;;;;;;;5.75;4.00;;;12.40;99.90;;;;;;5059109;28;20106;-80
2022/06/04 05:43:47;;;;;;;10.82;4.03;;;12.50;99.90;;;;;;5072658;28;20032;-79
2022/06/04 05:46:15;;;;;;;6.00;4.13;;;12.50;99.90;;;;;;5058465;28;20404;-79
2022/06/04 05:48:45;;;;;;;9.45;4.25;;;12.60;99.90;;;;;;5094233;28;20059;-78
2022/06/04 05:51:14;;;;;;;6.40;4.40;;;12.70;99.90;;;;;;5083843;28;20040;-80
2022/06/04 05:53:40;;;;;;;6.88;3.75;;;12.80;99.90;;;;;;5051527;28;20041;-79
2022/06/04 05:56:19;;;;;;;9.80;4.20;;;12.90;99.90;;;;;;5036166;28;20036;-79
2022/06/04 05:58:47;;;;;;;10.40;4.53;;;12.90;99.90;;;;;;5067123;28;20047;-80
2022/06/04 06:01:17;;;;;;;9.80;4.40;;;12.90;99.90;;;;;;5084347;28;20056;-79
2022/06/04 06:03:43;;;;;;;12.57;4.28;;;13.00;99.90;;;;;;5053862;28;20384;-84
2022/06/04 06:06:16;;;;;;;6.63;4.13;;;13.00;99.90;;;;;;5051968;28;20194;-80
2022/06/04 06:08:42;;;;;;;10.23;4.18;;;13.10;99.90;;;;;;5053738;28;20126;-81
2022/06/04 06:11:10;;;;;;;6.50;4.20;;;13.20;99.90;;;;;;5069198;28;20052;-81
2022/06/04 06:13:36;;;;;;;8.45;3.53;;;13.20;99.90;;;;;;5072637;28;20055;-79
2022/06/04 06:16:11;;;;;;;11.32;4.55;;;13.20;99.90;;;;;;5070684;28;20045;-83
2022/06/04 06:18:36;;;;;;;5.07;4.38;;;13.30;99.90;;;;;;5073362;28;20044;-81
2022/06/04 06:21:14;;;;;;;7.13;4.00;;;13.30;99.90;;;;;;5071598;28;20395;-81
2022/06/04 06:23:40;;;;;;;8.20;4.13;;;13.40;99.90;;;;;;5051809;28;20033;-81
2022/06/04 06:26:15;;;;;;;10.57;4.30;;;13.40;99.90;;;;;;5056984;28;20488;-80
2022/06/04 06:28:42;;;;;;;7.78;4.22;;;13.50;99.90;;;;;;5066578;28;20395;-81
2022/06/04 06:31:11;;;;;;;10.00;3.65;;;13.60;99.90;;;;;;5071296;28;20480;-81
2022/06/04 06:33:37;;;;;;;4.63;3.58;;;13.60;99.90;;;;;;5071503;28;20076;-80
2022/06/04 06:36:09;;;;;;;6.60;4.13;;;13.60;99.90;;;;;;5076152;28;20454;-79
2022/06/04 06:38:36;;;;;;;6.38;3.50;;;13.60;99.90;;;;;;5093539;28;20048;-81
2022/06/04 06:41:03;;;;;;;4.40;3.58;;;13.70;99.90;;;;;;5093579;28;20093;-80
2022/06/04 06:46:36;;;;;;;5.65;3.60;;;13.90;99.90;;;;;;5037502;28;20057;-80
2022/06/04 06:49:02;;;;;;;8.43;3.92;;;13.90;99.90;;;;;;5050473;28;20060;-80
2022/06/04 06:51:32;;;;;;;9.95;4.05;;;14.00;99.90;;;;;;5051150;28;20040;-80
2022/06/04 06:53:58;;;;;;;6.43;3.88;;;14.00;99.90;;;;;;5065845;28;20059;-82
2022/06/04 06:56:31;;;;;;;10.82;3.95;;;14.00;99.90;;;;;;5091595;28;20086;-82
2022/06/04 06:58:58;;;;;;;7.22;3.67;;;14.00;99.90;;;;;;5075987;28;20048;-80
2022/06/04 07:01:27;;;;;;;7.28;3.85;;;13.90;99.90;;;;;;5075616;28;20040;-80
2022/06/04 07:03:55;;;;;;;4.78;3.60;;;14.00;99.90;;;;;;5074957;28;20383;-79
2022/06/04 07:06:48;;;;;;;5.70;3.38;;;14.00;99.90;;;;;;5078556;28;20044;-81
2022/06/04 07:09:21;;;;;;;5.88;3.95;;;14.20;99.90;;;;;;5073729;28;20059;-81
2022/06/04 07:11:47;;;;;;;7.32;3.70;;;14.30;99.90;;;;;;5080371;28;20103;-78
2022/06/04 07:14:13;;;;;;;7.60;3.55;;;14.40;99.90;;;;;;5071744;28;20053;-79
2022/06/04 07:16:40;;;;;;;6.53;3.58;;;14.50;99.90;;;;;;5088490;28;20045;-81
2022/06/04 07:19:06;;;;;;;4.35;3.50;;;14.60;99.90;;;;;;5082623;28;20097;-81
2022/06/04 07:21:32;;;;;;;4.68;3.28;;;14.70;99.90;;;;;;5064003;28;20044;-80
2022/06/04 07:23:58;;;;;;;10.38;3.55;;;14.80;99.90;;;;;;5070872;28;20049;-83
2022/06/04 07:26:26;;;;;;;7.57;2.40;;;14.90;99.90;;;;;;5071819;28;20037;-81
2022/06/04 07:28:52;;;;;;;7.13;4.13;;;14.90;99.90;;;;;;5058531;28;20429;-79
2022/06/04 07:31:18;;;;;;;5.82;3.58;;;14.80;99.90;;;;;;5061752;28;20041;-79
2022/06/04 07:33:46;;;;;;;8.43;3.65;;;14.80;99.90;;;;;;5062021;28;20127;-80
2022/06/04 07:36:20;;;;;;;5.22;3.33;;;14.90;99.90;;;;;;5077322;28;20047;-81
2022/06/04 07:38:46;;;;;;;9.48;4.55;;;15.00;99.90;;;;;;5057453;28;20055;-81
2022/06/04 07:41:28;;;;;;;5.15;3.38;;;15.00;99.90;;;;;;5082187;28;20044;-81
2022/06/04 07:43:54;;;;;;;6.07;3.38;;;15.10;99.90;;;;;;5095053;28;20131;-81
2022/06/04 07:46:22;;;;;;;4.40;3.47;;;15.10;99.90;;;;;;5061635;28;20047;-79
2022/06/04 07:48:48;;;;;;;6.80;3.60;;;15.10;99.90;;;;;;5084779;28;20047;-81
2022/06/04 07:51:15;;;;;;;7.22;3.65;;;15.00;99.90;;;;;;5081441;28;20048;-78
2022/06/04 07:53:41;;;;;;;4.82;3.00;;;15.10;99.90;;;;;;5074957;28;20067;-83
2022/06/04 07:56:18;;;;;;;5.45;3.30;;;15.10;99.90;;;;;;5063104;28;20487;-80
2022/06/04 07:58:44;;;;;;;5.53;2.78;;;15.20;99.90;;;;;;5071740;28;20040;-80
2022/06/04 08:01:15;;;;;;;7.35;3.58;;;15.20;99.90;;;;;;5072083;28;20043;-80
2022/06/04 08:03:43;;;;;;;4.65;3.33;;;15.10;99.90;;;;;;5073993;28;20430;-79
2022/06/04 08:06:10;;;;;;;5.75;3.45;;;15.20;99.90;;;;;;5073257;28;20040;-79
2022/06/04 08:08:37;;;;;;;7.93;3.65;;;15.30;99.90;;;;;;5074677;28;20167;-79
2022/06/04 08:13:48;;;;;;;4.57;3.42;;;15.50;99.90;;;;;;5073943;28;20602;-83
2022/06/04 08:16:14;;;;;;;6.90;4.25;;;15.60;99.90;;;;;;5074257;28;20178;-81
2022/06/04 08:18:40;;;;;;;5.03;3.17;;;15.60;99.90;;;;;;5080034;28;20127;-80
2022/06/04 08:21:06;;;;;;;4.95;3.10;;;15.70;99.90;;;;;;5062580;28;20040;-80
2022/06/04 08:23:32;;;;;;;5.22;3.40;;;15.70;99.90;;;;;;5072840;28;20492;-81
2022/06/04 08:25:58;;;;;;;3.95;2.90;;;15.70;99.90;;;;;;5074139;28;20032;-82
2022/06/04 08:28:25;;;;;;;3.97;2.75;;;15.80;99.90;;;;;;5072794;28;20037;-81
2022/06/04 08:31:01;;;;;;;7.10;3.53;;;15.80;99.90;;;;;;5068554;28;20033;-79
2022/06/04 08:33:27;;;;;;;4.65;3.00;;;15.80;99.90;;;;;;5075260;28;20526;-80
2022/06/04 08:35:52;;;;;;;7.15;3.83;;;15.70;99.90;;;;;;5067543;28;20120;-81
2022/06/04 08:38:18;;;;;;;6.25;3.45;;;15.80;99.90;;;;;;5074039;28;20384;-81
2022/06/04 08:40:57;;;;;;;4.45;2.92;;;15.90;99.90;;;;;;5073694;28;20033;-81
2022/06/04 08:43:46;;;;;;;6.95;3.55;;;15.90;99.90;;;;;;5075093;28;20043;-82
2022/06/04 08:46:34;;;;;;;4.60;3.00;;;15.80;99.90;;;;;;5065838;28;20392;-80
2022/06/04 08:49:11;;;;;;;9.13;3.85;;;15.80;99.90;;;;;;5067529;28;20162;-81
2022/06/04 08:51:37;;;;;;;4.93;3.03;;;15.80;99.90;;;;;;5065425;28;20041;-79
2022/06/04 08:57:32;;;;;;;6.47;2.92;;;15.80;99.90;;;;;;5070762;28;20115;-82
2022/06/04 08:59:47;;;;;;;10.88;3.30;;;15.90;99.90;;;;;;5074514;28;20123;-81
2022/06/04 09:02:25;;;;;;;8.50;3.17;;;16.00;99.90;;;;;;5054283;28;20500;-78
2022/06/04 09:05:15;;;;;;;5.72;2.85;;;16.10;99.90;;;;;;5093558;28;20051;-77
2022/06/04 09:07:45;;;;;;;6.88;3.38;;;16.20;99.90;;;;;;5054681;28;20049;-77
2022/06/04 09:10:19;;;;;;;6.43;3.10;;;16.20;99.90;;;;;;5052047;28;20057;-76
2022/06/04 09:12:55;;;;;;;4.53;3.30;;;16.20;99.90;;;;;;5053303;28;20055;-78
2022/06/04 09:15:30;;;;;;;4.25;3.17;;;16.20;99.90;;;;;;5057554;28;20387;-77
2022/06/04 09:18:01;;;;;;;7.97;3.28;;;16.20;99.90;;;;;;5059954;28;20109;-77
2022/06/04 09:20:36;;;;;;;4.20;3.10;;;16.30;99.90;;;;;;5065969;28;20045;-79
2022/06/04 09:23:40;;;;;;;9.88;3.50;;;16.30;99.90;;;;;;5036245;28;20111;-77
2022/06/04 09:26:14;;;;;;;4.70;3.20;;;16.40;99.90;;;;;;5041961;28;20059;-77
2022/06/04 09:28:58;;;;;;;4.68;2.90;;;16.40;99.90;;;;;;5074113;28;20049;-79
2022/06/04 09:31:36;;;;;;;6.80;3.13;;;16.50;99.90;;;;;;5071761;28;20476;-78
2022/06/04 09:34:14;;;;;;;8.30;3.42;;;16.40;99.90;;;;;;5069268;28;20049;-77
2022/06/04 09:36:42;;;;;;;5.53;3.33;;;16.50;99.90;;;;;;5053166;28;20492;-79
2022/06/04 09:39:27;;;;;;;11.13;4.03;;;16.50;99.90;;;;;;5051854;28;20049;-77
2022/06/04 09:41:56;;;;;;;6.88;3.03;;;16.60;99.90;;;;;;5069415;28;20507;-77
2022/06/04 09:44:24;;;;;;;8.02;2.80;;;16.60;99.90;;;;;;5053219;28;20037;-77
2022/06/04 09:46:58;;;;;;;7.78;2.70;;;16.60;99.90;;;;;;5059006;28;20064;-77
2022/06/04 09:49:40;;;;;;;5.63;3.37;;;16.50;99.90;;;;;;5072922;28;20040;-78
2022/06/04 09:52:17;;;;;;;4.18;2.63;;;16.50;99.90;;;;;;5068655;28;20076;-77
2022/06/04 09:54:45;;;;;;;5.18;2.58;;;16.40;99.90;;;;;;5054323;28;20081;-77
2022/06/04 09:57:31;;;;;;;7.07;3.58;;;16.50;99.90;;;;;;5072633;28;20052;-77
2022/06/04 09:59:58;;;;;;;6.97;2.75;;;16.60;99.90;;;;;;5071487;28;20056;-79
2022/06/04 10:02:24;;;;;;;3.90;2.90;;;16.70;99.90;;;;;;5081318;28;20399;-79
2022/06/04 10:05:02;;;;;;;5.72;2.75;;;16.70;99.90;;;;;;5099149;28;20037;-77
2022/06/04 10:07:37;;;;;;;8.52;3.00;;;16.70;99.90;;;;;;5062407;28;20481;-78
2022/06/04 10:10:25;;;;;;;7.38;2.60;;;16.80;99.90;;;;;;5053525;28;20125;-77
2022/06/04 10:15:41;;;;;;;4.50;2.72;;;17.10;99.90;;;;;;5052231;28;20466;-77
2022/06/04 10:18:29;;;;;;;6.43;2.85;;;17.20;99.90;;;;;;5069091;28;20056;-76
2022/06/04 10:20:59;;;;;;;5.88;2.85;;;17.40;99.90;;;;;;5068994;28;20080;-77
2022/06/04 10:23:28;;;;;;;7.15;2.90;;;17.50;99.90;;;;;;5054841;28;20052;-78
2022/06/04 10:26:02;;;;;;;5.60;2.85;;;17.50;99.90;;;;;;5069013;28;20044;-79
2022/06/04 10:28:36;;;;;;;;;;;17.50;99.90;;;;;;5068610;28;20045;-78
2022/06/04 10:31:18;;;;;;;6.20;2.88;;;17.50;99.90;;;;;;5052122;28;19924;-77
2022/06/04 10:33:47;;;;;;;6.03;2.63;;;17.50;99.90;;;;;;5052257;28;20613;-76
2022/06/04 10:36:33;;;;;;;5.45;2.92;;;17.60;99.90;;;;;;5058108;28;21093;-77
2022/06/04 10:39:16;;;;;;;3.63;2.60;;;17.50;99.90;;;;;;5075632;28;20426;-78
2022/06/04 10:41:56;;;;;;;7.15;3.47;;;17.50;99.90;;;;;;5071046;28;20090;-77
2022/06/04 10:44:48;;;;;;;5.95;2.83;;;17.50;99.90;;;;;;5071951;28;20132;-77
2022/06/04 10:47:46;;;;;;;6.05;2.80;;;17.50;99.90;;;;;;5072828;28;20422;-77
2022/06/04 10:50:22;;;;;;;6.05;3.13;;;17.40;99.90;;;;;;5071806;28;20450;-79
2022/06/04 10:53:07;;;;;;;6.60;2.53;;;17.40;99.90;;;;;;5064680;28;20077;-78
2022/06/04 10:55:42;;;;;;;4.28;2.47;;;17.40;99.90;;;;;;5050898;28;20481;-78
2022/06/04 10:58:26;;;;;;;5.82;3.20;;;17.40;99.90;;;;;;5071117;28;20411;-77
2022/06/04 11:01:07;;;;;;;4.30;2.72;;;17.40;99.90;;;;;;5071824;28;20037;-76
2022/06/04 11:04:08;;;;;;;5.80;3.13;;;17.50;99.90;;;;;;5088511;28;20048;-79
2022/06/04 11:06:42;;;;;;;6.75;2.88;;;17.50;99.90;;;;;;5074134;28;20115;-78
2022/06/04 11:09:22;;;;;;;3.58;2.72;;;17.60;99.90;;;;;;5071997;28;20049;-77
2022/06/04 11:11:58;;;;;;;6.15;2.97;;;17.60;99.90;;;;;;5071397;28;20476;-78
2022/06/04 11:14:52;;;;;;;6.13;2.53;;;17.50;99.90;;;;;;5071520;28;20044;-76
2022/06/04 11:17:21;;;;;;;5.05;2.53;;;17.40;99.90;;;;;;5034118;28;20106;-76
2022/06/04 11:20:04;;;;;;;2.97;2.38;;;17.40;99.90;;;;;;5052616;28;20041;-76
2022/06/04 11:22:37;;;;;;;5.75;2.70;;;17.50;99.90;;;;;;5071730;28;20052;-78
2022/06/04 11:25:15;;;;;;;3.58;2.30;;;17.50;99.90;;;;;;5072368;28;20116;-77
2022/06/04 11:27:50;;;;;;;6.07;2.63;;;17.60;99.90;;;;;;5070317;28;20098;-76
2022/06/04 11:30:24;;;;;;;3.20;2.45;;;17.60;99.90;;;;;;5070645;28;20044;-77
2022/06/04 11:33:04;;;;;;;3.25;2.50;;;17.50;99.90;;;;;;5073737;28;20487;-77
2022/06/04 11:35:33;;;;;;;5.07;2.67;;;17.50;99.90;;;;;;5074699;28;20048;-77
2022/06/04 11:38:21;;;;;;;4.78;2.67;;;17.40;99.90;;;;;;5086407;28;20040;-77
2022/06/04 11:41:08;;;;;;;9.20;2.72;;;17.40;99.90;;;;;;5092044;28;20097;-77
2022/06/04 11:43:51;;;;;;;4.82;2.65;;;17.40;99.90;;;;;;5054995;28;20045;-76
2022/06/04 11:46:48;;;;;;;5.00;3.28;;;17.50;99.90;;;;;;5056220;28;20492;-76
2022/06/04 11:49:35;;;;;;;5.53;2.72;;;17.50;99.90;;;;;;5055014;28;20052;-77
2022/06/04 11:52:21;;;;;;;6.53;2.58;;;17.50;99.90;;;;;;5087026;28;20076;-77
2022/06/04 11:55:05;;;;;;;4.18;2.30;;;17.50;99.90;;;;;;5052018;28;20515;-77
2022/06/04 11:57:48;;;;;;;4.72;2.75;;;17.50;99.90;;;;;;5054982;28;20055;-77
2022/06/04 12:00:38;;;;;;;15.05;3.55;;;17.50;99.90;;;;;;5072559;28;20051;-77
2022/06/04 12:03:17;;;;;;;5.53;2.92;;;17.60;99.90;;;;;;5073873;28;20113;-78
2022/06/04 12:05:45;;;;;;;3.17;2.47;;;17.60;99.90;;;;;;5053958;28;20049;-77
2022/06/04 12:08:15;;;;;;;6.93;2.70;;;17.60;99.90;;;;;;5097438;28;20119;-77
2022/06/04 12:10:44;;;;;;;5.18;2.60;;;17.60;99.90;;;;;;5093822;28;20189;-78
2022/06/04 12:13:23;;;;;;;3.97;2.75;;;17.60;99.90;;;;;;5053621;28;20052;-78
2022/06/04 12:15:58;;;;;;;4.07;2.65;;;17.70;99.90;;;;;;5054215;28;20532;-77
2022/06/04 12:18:42;;;;;;;4.30;2.72;;;17.70;99.90;;;;;;5074304;28;20044;-78
2022/06/04 12:24:23;;;;;;;6.75;2.63;;;17.80;99.90;;;;;;5071029;28;20055;-78
2022/06/04 12:26:49;;;;;;;4.88;2.53;;;17.90;99.90;;;;;;5074399;28;20044;-78
2022/06/04 12:29:31;;;;;;;3.85;3.00;;;17.90;99.90;;;;;;5074296;28;20037;-78
2022/06/04 12:32:31;;;;;;;3.83;2.78;;;18.00;99.90;;;;;;5065946;28;20080;-77
2022/06/04 12:35:09;;;;;;;9.55;3.60;;;18.00;99.90;;;;;;5054570;28;20052;-76
2022/06/04 12:37:41;;;;;;;2.95;2.40;;;17.90;99.90;;;;;;5080733;28;20048;-77
2022/06/04 12:40:19;;;;;;;6.03;3.13;;;17.90;99.90;;;;;;5072954;28;20045;-77
2022/06/04 12:43:23;;;;;;;4.57;3.30;;;17.90;99.90;;;;;;5059846;28;20076;-76
2022/06/04 12:45:52;;;;;;;6.57;2.88;;;18.00;99.90;;;;;;5056303;28;20045;-76
2022/06/04 12:48:33;;;;;;;9.68;3.40;;;17.90;99.90;;;;;;5071838;28;20377;-77
2022/06/04 12:51:20;;;;;;;11.45;4.07;;;17.80;99.90;;;;;;5067881;28;20045;-77
2022/06/04 12:54:01;;;;;;;8.25;3.45;;;17.80;99.90;;;;;;5053473;28;20080;-76
2022/06/04 12:56:31;;;;;;;5.75;3.40;;;17.70;99.90;;;;;;5052942;28;20044;-77
2022/06/04 12:59:01;;;;;;;5.97;3.78;;;17.70;99.90;;;;;;5073484;28;20127;-76
2022/06/04 13:01:29;;;;;;;8.20;4.07;;;17.70;99.90;;;;;;5073458;28;20040;-78
2022/06/04 13:04:10;;;;;;;8.35;4.22;;;17.80;99.90;;;;;;5073199;28;20488;-76
2022/06/04 13:06:50;;;;;;;7.70;4.00;;;17.80;99.90;;;;;;5074805;28;20045;-78
2022/06/04 13:09:15;;;;;;;6.25;3.40;;;17.80;99.90;;;;;;5052337;28;20182;-77
2022/06/04 13:11:59;;;;;;;8.65;3.40;;;17.80;99.90;;;;;;5054749;28;20127;-76
2022/06/04 13:14:36;;;;;;;11.20;4.03;;;17.90;99.90;;;;;;5069927;28;20077;-77
2022/06/04 13:17:31;;;;;;;13.23;3.70;;;18.00;99.90;;;;;;5072120;28;20162;-76
2022/06/04 13:20:02;;;;;;;8.83;3.70;;;18.00;99.90;;;;;;5073177;28;20048;-77
2022/06/04 13:22:50;;;;;;;8.85;3.90;;;18.00;99.90;;;;;;5057085;28;20045;-78
2022/06/04 13:25:21;;;;;;;11.57;3.63;;;18.00;99.90;;;;;;5075158;28;20127;-77
2022/06/04 13:27:54;;;;;;;9.02;3.45;;;17.90;99.90;;;;;;5077321;28;20036;-79
2022/06/04 13:30:28;;;;;;;8.32;3.80;;;17.70;99.90;;;;;;5083877;28;20041;-78
2022/06/04 13:33:15;;;;;;;8.30;3.15;;;17.70;99.90;;;;;;5072992;28;20044;-78
2022/06/04 13:35:47;;;;;;;9.95;4.22;;;17.70;99.90;;;;;;5066691;28;20049;-79